Time;durP1;ratioP1;P1;durP2;ratioP2;P2;SDS_P1;SDS_P2;PMS_P1;PMS_P2;Temp;Humidity;BMP_temperature;BMP_pressure;BME280_temperature;BME280_humidity;BME280_pressure;Samples;Min_cycle;Max_cycle;Signal;HPM_P1;HPM_P2
2022/01/03 00:00:36;;;;;;;3.53;1.23;;;10.50;97.00;;;;;;5045036;28;20037;-68
2022/01/03 00:03:04;;;;;;;0.95;0.85;;;10.40;97.10;;;;;;5040517;28;20476;-68
2022/01/03 00:05:30;;;;;;;3.15;1.05;;;10.40;97.10;;;;;;5053956;28;20501;-67
2022/01/03 00:07:57;;;;;;;6.40;1.60;;;10.40;97.20;;;;;;5034597;28;20392;-67
2022/01/03 00:10:23;;;;;;;6.95;1.27;;;10.40;97.20;;;;;;5041237;28;20546;-68
2022/01/03 00:12:49;;;;;;;8.40;1.40;;;10.40;97.20;;;;;;5054171;28;20515;-67
2022/01/03 00:15:17;;;;;;;4.15;1.20;;;10.40;97.60;;;;;;5046962;28;20029;-68
2022/01/03 00:17:43;;;;;;;5.50;1.33;;;10.40;97.40;;;;;;5036251;28;20469;-68
2022/01/03 00:20:11;;;;;;;5.10;1.42;;;10.40;97.40;;;;;;5046095;28;20036;-68
2022/01/03 00:22:50;;;;;;;5.28;0.95;;;10.50;97.40;;;;;;5048328;28;20473;-68
2022/01/03 00:25:18;;;;;;;5.47;1.50;;;10.40;97.40;;;;;;5034265;28;20057;-67
2022/01/03 00:27:57;;;;;;;4.72;1.13;;;10.40;97.50;;;;;;5034242;28;20108;-68
2022/01/03 00:30:24;;;;;;;7.32;1.65;;;10.40;97.50;;;;;;5034204;28;20036;-68
2022/01/03 00:32:51;;;;;;;8.82;1.33;;;10.40;97.60;;;;;;5033926;28;20045;-67
2022/01/03 00:35:19;;;;;;;8.30;2.08;;;10.40;97.70;;;;;;5033986;28;20397;-68
2022/01/03 00:37:46;;;;;;;8.95;2.00;;;10.40;97.80;;;;;;5034312;28;20029;-68
2022/01/03 00:40:18;;;;;;;5.22;1.48;;;10.40;97.90;;;;;;5048533;28;20064;-68
2022/01/03 00:42:44;;;;;;;6.35;1.73;;;10.40;97.90;;;;;;5054016;28;20035;-68
2022/01/03 00:45:13;;;;;;;7.85;1.95;;;10.30;97.90;;;;;;5053822;28;20362;-68
2022/01/03 00:47:39;;;;;;;5.10;1.58;;;10.40;98.00;;;;;;5041985;28;20022;-68
2022/01/03 00:50:15;;;;;;;4.00;1.60;;;10.30;98.10;;;;;;5049956;28;20036;-68
2022/01/03 00:52:42;;;;;;;7.40;2.40;;;10.30;98.20;;;;;;5053101;28;20060;-67
2022/01/03 00:55:08;;;;;;;9.95;1.95;;;10.30;98.30;;;;;;5047417;28;20044;-67
2022/01/03 00:57:55;;;;;;;8.65;2.00;;;10.30;98.40;;;;;;5032142;28;20573;-67
2022/01/03 01:00:20;;;;;;;9.70;2.38;;;10.30;98.40;;;;;;5042583;28;20033;-67
2022/01/03 01:03:00;;;;;;;6.70;2.33;;;10.30;98.50;;;;;;5050368;28;20024;-68
2022/01/03 01:05:26;;;;;;;9.73;1.90;;;10.30;98.60;;;;;;5045553;28;20040;-67
2022/01/03 01:07:56;;;;;;;11.82;2.67;;;10.20;98.60;;;;;;5046846;28;20128;-67
2022/01/03 01:10:28;;;;;;;16.02;2.90;;;10.30;98.70;;;;;;5048887;28;20539;-69
2022/01/03 01:12:55;;;;;;;15.50;2.50;;;10.30;98.60;;;;;;5044696;28;20040;-68
2022/01/03 01:15:24;;;;;;;19.83;2.65;;;10.30;98.70;;;;;;5039015;28;20424;-68
2022/01/03 01:17:53;;;;;;;9.82;2.30;;;10.20;98.80;;;;;;5034693;28;20029;-68
2022/01/03 01:20:22;;;;;;;9.43;2.08;;;10.20;98.90;;;;;;5038492;28;20029;-68
2022/01/03 01:22:55;;;;;;;14.02;2.83;;;10.20;99.00;;;;;;5037946;28;20039;-68
2022/01/03 01:27:46;;;;;;;9.15;2.28;;;10.20;98.90;;;;;;5043331;28;20033;-68
2022/01/03 01:28:16;;;;;;;11.77;2.35;;;10.30;98.90;;;;;;5050556;28;20082;-68
2022/01/03 01:30:43;;;;;;;12.30;2.60;;;10.30;98.90;;;;;;5052707;28;20495;-68
2022/01/03 01:33:17;;;;;;;13.52;2.42;;;10.20;98.90;;;;;;5051837;28;20033;-68
2022/01/03 01:35:53;;;;;;;10.88;2.33;;;10.30;99.00;;;;;;5050911;28;20036;-68
2022/01/03 01:38:32;;;;;;;11.13;2.47;;;10.30;98.90;;;;;;5040910;28;20131;-68
2022/01/03 01:40:59;;;;;;;10.77;1.90;;;10.30;98.90;;;;;;5031574;28;20075;-68
2022/01/03 01:43:36;;;;;;;12.25;2.72;;;10.30;98.90;;;;;;5044157;28;20040;-68
2022/01/03 01:46:12;;;;;;;15.30;2.42;;;10.30;98.80;;;;;;5054943;28;20022;-68
2022/01/03 01:48:40;;;;;;;18.17;3.78;;;10.30;98.80;;;;;;5035464;28;20069;-68
2022/01/03 01:51:10;;;;;;;16.27;2.70;;;10.40;98.80;;;;;;5030876;28;20056;-68
2022/01/03 01:53:43;;;;;;;14.85;2.90;;;10.40;98.80;;;;;;5035693;28;20021;-68
2022/01/03 01:56:19;;;;;;;16.98;3.10;;;10.40;98.70;;;;;;5039652;28;20029;-68
2022/01/03 01:59:10;;;;;;;8.60;2.28;;;10.40;98.70;;;;;;5031348;28;20041;-68
2022/01/03 02:02:01;;;;;;;14.82;2.22;;;10.50;98.70;;;;;;5031323;28;20354;-68
2022/01/03 02:04:33;;;;;;;12.75;2.88;;;10.40;98.60;;;;;;5047048;28;20125;-68
2022/01/03 02:07:30;;;;;;;12.57;2.95;;;10.40;98.50;;;;;;5031166;28;20034;-68
2022/01/03 02:10:07;;;;;;;24.25;3.15;;;10.40;98.60;;;;;;5037454;28;20036;-68
2022/01/03 02:12:40;;;;;;;20.63;2.97;;;10.40;98.60;;;;;;5039104;28;20033;-68
2022/01/03 02:15:11;;;;;;;17.02;3.22;;;10.40;98.60;;;;;;5031323;28;20495;-68
2022/01/03 02:17:39;;;;;;;12.65;2.65;;;10.50;98.50;;;;;;5043447;28;20044;-68
2022/01/03 02:20:11;;;;;;;24.45;3.72;;;10.40;98.50;;;;;;5032969;28;20021;-69
2022/01/03 02:22:38;;;;;;;17.23;3.33;;;10.50;98.60;;;;;;5050802;28;20029;-68
2022/01/03 02:25:10;;;;;;;12.55;2.97;;;10.50;98.50;;;;;;5040748;28;20083;-68
2022/01/03 02:27:37;;;;;;;17.75;2.58;;;10.50;98.50;;;;;;5036035;28;20032;-68
2022/01/03 02:30:09;;;;;;;14.57;2.97;;;10.40;98.50;;;;;;5040288;28;20079;-68
2022/01/03 02:32:35;;;;;;;13.73;3.38;;;10.50;98.50;;;;;;5035504;28;20040;-68
2022/01/03 02:35:03;;;;;;;17.40;3.72;;;10.50;98.40;;;;;;5039120;28;20027;-68
2022/01/03 02:37:29;;;;;;;10.30;3.03;;;10.50;98.40;;;;;;5049452;28;20068;-68
2022/01/03 02:39:56;;;;;;;9.25;2.50;;;10.50;98.50;;;;;;5045682;28;20064;-68
2022/01/03 02:42:25;;;;;;;17.27;3.10;;;10.50;98.50;;;;;;5049616;28;20052;-68
2022/01/03 02:44:59;;;;;;;19.17;3.83;;;10.50;98.40;;;;;;5049720;28;20075;-68
2022/01/03 02:47:28;;;;;;;18.42;3.58;;;10.50;98.50;;;;;;5038207;28;20029;-68
2022/01/03 02:49:54;;;;;;;29.20;3.75;;;10.50;98.50;;;;;;5030651;28;20473;-69
2022/01/03 02:52:20;;;;;;;17.42;3.33;;;10.50;98.60;;;;;;5043177;28;20037;-68
2022/01/03 02:54:47;;;;;;;14.75;2.63;;;10.40;98.60;;;;;;5051804;28;20036;-68
2022/01/03 02:57:13;;;;;;;16.17;3.55;;;10.40;98.70;;;;;;5040942;28;20076;-68
2022/01/03 02:59:39;;;;;;;19.55;3.67;;;10.40;98.60;;;;;;5043054;28;20039;-68
2022/01/03 03:02:05;;;;;;;11.63;3.42;;;10.40;98.70;;;;;;5041303;28;20100;-68
2022/01/03 03:04:32;;;;;;;16.35;3.78;;;10.40;98.70;;;;;;5034297;28;20478;-68
2022/01/03 03:06:58;;;;;;;23.80;4.25;;;10.40;98.80;;;;;;5041167;28;20028;-68
2022/01/03 03:09:24;;;;;;;18.67;3.55;;;10.50;98.70;;;;;;5041780;28;20541;-68
2022/01/03 03:11:51;;;;;;;16.67;3.85;;;10.40;98.70;;;;;;5049540;28;20064;-68
2022/01/03 03:14:17;;;;;;;19.20;4.10;;;10.40;98.70;;;;;;5040318;28;20029;-68
2022/01/03 03:16:44;;;;;;;30.25;5.10;;;10.40;98.80;;;;;;5030478;28;20041;-68
2022/01/03 03:19:10;;;;;;;21.40;4.10;;;10.40;98.90;;;;;;5059049;28;20116;-68
2022/01/03 03:21:38;;;;;;;23.95;3.85;;;10.40;98.80;;;;;;5042834;28;20116;-68
2022/01/03 03:24:08;;;;;;;16.40;3.20;;;10.40;98.80;;;;;;5046917;28;20388;-68
2022/01/03 03:26:34;;;;;;;21.23;4.15;;;10.40;98.80;;;;;;5042794;28;20025;-68
2022/01/03 03:29:00;;;;;;;16.67;3.30;;;10.30;98.80;;;;;;5048673;28;20025;-68
2022/01/03 03:31:28;;;;;;;23.58;3.00;;;10.40;98.80;;;;;;5039897;28;20041;-68
2022/01/03 03:33:54;;;;;;;21.00;3.15;;;10.50;98.70;;;;;;5041886;28;20544;-68
2022/01/03 03:36:20;;;;;;;19.75;3.30;;;10.40;98.60;;;;;;5047473;28;20036;-68
2022/01/03 03:38:45;;;;;;;20.95;3.92;;;10.50;98.60;;;;;;5037866;28;20051;-68
2022/01/03 03:41:15;;;;;;;17.90;3.55;;;10.50;98.50;;;;;;5037374;28;20034;-69
2022/01/03 03:43:46;;;;;;;17.13;3.53;;;10.50;98.40;;;;;;5045861;28;20092;-68
2022/01/03 03:46:12;;;;;;;21.08;3.67;;;10.50;98.30;;;;;;5053614;28;20082;-68
2022/01/03 03:48:40;;;;;;;16.88;2.95;;;10.50;98.30;;;;;;5042426;28;20744;-68
2022/01/03 03:51:05;;;;;;;25.45;3.97;;;10.50;98.30;;;;;;5051722;28;20029;-68
2022/01/03 03:53:32;;;;;;;21.13;3.40;;;10.50;98.20;;;;;;5042166;28;20042;-68
2022/01/03 03:55:59;;;;;;;19.77;3.55;;;10.50;98.10;;;;;;5036208;28;20026;-69
2022/01/03 03:58:28;;;;;;;18.80;3.63;;;10.50;98.10;;;;;;5045917;28;20217;-68
2022/01/03 04:00:54;;;;;;;22.38;3.25;;;10.50;98.00;;;;;;5041302;28;20029;-68
2022/01/03 04:03:20;;;;;;;22.45;4.15;;;10.60;98.00;;;;;;5052961;28;20029;-68
2022/01/03 04:05:45;;;;;;;22.17;3.50;;;10.50;97.90;;;;;;5039979;28;20021;-68
2022/01/03 04:08:11;;;;;;;39.17;5.65;;;10.50;97.90;;;;;;5053221;28;20079;-68
2022/01/03 04:10:38;;;;;;;26.13;4.38;;;10.50;97.90;;;;;;5034034;28;20033;-68
2022/01/03 04:13:04;;;;;;;18.15;4.07;;;10.40;97.90;;;;;;5033580;28;20394;-68
2022/01/03 04:15:30;;;;;;;22.83;4.00;;;10.40;97.90;;;;;;5046430;28;20025;-68
2022/01/03 04:17:56;;;;;;;19.42;3.65;;;10.50;98.00;;;;;;5034003;28;20025;-68
2022/01/03 04:20:22;;;;;;;21.77;3.95;;;10.50;97.90;;;;;;5053225;28;20119;-68
2022/01/03 04:22:48;;;;;;;21.40;3.42;;;10.40;97.90;;;;;;5052906;28;20025;-68
2022/01/03 04:25:15;;;;;;;24.80;3.47;;;10.40;97.90;;;;;;5044741;28;20482;-68
2022/01/03 04:27:41;;;;;;;14.20;2.78;;;10.40;97.90;;;;;;5034445;28;20056;-68
2022/01/03 04:30:11;;;;;;;21.17;4.05;;;10.30;98.00;;;;;;5033263;28;20025;-68
2022/01/03 04:32:38;;;;;;;30.63;4.22;;;10.20;98.00;;;;;;5050526;28;20393;-68
2022/01/03 04:35:04;;;;;;;22.50;4.47;;;10.30;98.00;;;;;;5044578;28;20048;-68
2022/01/03 04:37:33;;;;;;;23.52;4.50;;;10.30;98.10;;;;;;5050296;28;20075;-68
2022/01/03 04:39:59;;;;;;;18.23;3.55;;;10.30;98.10;;;;;;5054110;28;20033;-68
2022/01/03 04:42:25;;;;;;;18.83;4.22;;;10.20;98.10;;;;;;5036334;28;20018;-68
2022/01/03 04:44:56;;;;;;;24.77;4.38;;;10.20;98.10;;;;;;5043843;28;20116;-68
2022/01/03 04:47:22;;;;;;;16.17;3.70;;;10.30;98.10;;;;;;5048108;28;20029;-68
2022/01/03 04:49:48;;;;;;;23.00;3.67;;;10.30;98.10;;;;;;5052637;28;20033;-68
2022/01/03 04:52:14;;;;;;;19.48;4.03;;;10.30;98.00;;;;;;5038449;28;20068;-68
2022/01/03 04:54:41;;;;;;;24.85;4.20;;;10.30;98.10;;;;;;5053832;28;20056;-68
2022/01/03 04:57:07;;;;;;;22.00;4.20;;;10.20;98.00;;;;;;5038745;28;20547;-68
2022/01/03 04:59:33;;;;;;;19.00;4.60;;;10.20;98.10;;;;;;5051826;28;20079;-68
2022/01/03 05:02:03;;;;;;;21.42;4.32;;;10.30;98.10;;;;;;5038897;28;20041;-68
2022/01/03 05:04:29;;;;;;;25.20;4.55;;;10.20;98.10;;;;;;5052450;28;20035;-68
2022/01/03 05:06:55;;;;;;;24.83;4.68;;;10.20;98.20;;;;;;5034783;28;20029;-68
2022/01/03 05:09:20;;;;;;;22.58;3.97;;;10.20;98.20;;;;;;5033821;28;20123;-68
2022/01/03 05:11:49;;;;;;;16.95;3.75;;;10.20;98.20;;;;;;5053414;28;20036;-68
2022/01/03 05:14:18;;;;;;;28.17;4.38;;;10.20;98.20;;;;;;5051538;28;20029;-68
2022/01/03 05:16:43;;;;;;;21.17;4.55;;;10.30;98.20;;;;;;5038662;28;20036;-68
2022/01/03 05:19:11;;;;;;;31.08;5.35;;;10.30;98.10;;;;;;5052186;28;20480;-68
2022/01/03 05:21:37;;;;;;;16.00;3.38;;;10.30;98.10;;;;;;5039838;28;20038;-68
2022/01/03 05:24:04;;;;;;;21.63;4.63;;;10.20;98.20;;;;;;5044881;28;20024;-68
2022/01/03 05:26:32;;;;;;;17.67;3.90;;;10.20;98.20;;;;;;5051630;28;20055;-68
2022/01/03 05:28:58;;;;;;;30.95;5.00;;;10.20;98.10;;;;;;5038692;28;20044;-68
2022/01/03 05:31:24;;;;;;;20.63;4.55;;;10.30;98.20;;;;;;5031979;28;20037;-68
2022/01/03 05:33:50;;;;;;;22.77;4.78;;;10.20;98.10;;;;;;5045199;28;20070;-68
2022/01/03 05:36:16;;;;;;;25.52;4.78;;;10.30;98.20;;;;;;5053131;28;20095;-68
2022/01/03 05:38:43;;;;;;;20.02;3.72;;;10.20;98.30;;;;;;5037745;28;20120;-68
2022/01/03 05:41:09;;;;;;;22.98;4.07;;;10.10;98.30;;;;;;5039463;28;20059;-68
2022/01/03 05:43:35;;;;;;;34.35;5.53;;;10.10;98.40;;;;;;5052629;28;20467;-68
2022/01/03 05:46:01;;;;;;;27.10;4.55;;;10.20;98.40;;;;;;5036370;28;20017;-67
2022/01/03 05:48:28;;;;;;;21.45;4.22;;;10.10;98.40;;;;;;5041304;28;20064;-68
2022/01/03 05:50:54;;;;;;;28.73;5.68;;;10.10;98.40;;;;;;5044393;28;20025;-68
2022/01/03 05:53:20;;;;;;;20.35;4.32;;;10.20;98.40;;;;;;5038833;28;20030;-68
2022/01/03 05:55:46;;;;;;;22.73;5.05;;;10.20;98.40;;;;;;5030726;28;20040;-68
2022/01/03 05:58:16;;;;;;;21.02;4.47;;;10.10;98.40;;;;;;5041578;28;20057;-68
2022/01/03 06:00:44;;;;;;;20.67;5.20;;;10.20;98.30;;;;;;5032663;28;20060;-68
2022/01/03 06:03:10;;;;;;;14.38;3.40;;;10.20;98.30;;;;;;5043703;28;20021;-68
2022/01/03 06:08:02;;;;;;;11.40;3.15;;;10.10;98.30;;;;;;5044695;28;20033;-68
2022/01/03 06:10:32;;;;;;;17.83;3.40;;;10.20;98.30;;;;;;5050324;28;20110;-68
2022/01/03 06:12:57;;;;;;;23.70;4.72;;;10.20;98.20;;;;;;5039521;28;20038;-68
2022/01/03 06:15:25;;;;;;;21.58;3.83;;;10.20;98.20;;;;;;5044366;28;20021;-68
2022/01/03 06:17:51;;;;;;;29.95;3.47;;;10.20;98.10;;;;;;5030726;28;20037;-68
2022/01/03 06:20:18;;;;;;;18.50;4.80;;;10.20;98.20;;;;;;5034484;28;20021;-68
2022/01/03 06:22:44;;;;;;;23.42;4.10;;;10.20;98.10;;;;;;5037798;28;20029;-68
2022/01/03 06:25:11;;;;;;;13.82;3.17;;;10.20;98.10;;;;;;5037295;28;20060;-68
2022/01/03 06:27:38;;;;;;;27.35;5.22;;;10.20;98.00;;;;;;5049741;28;20036;-68
2022/01/03 06:30:06;;;;;;;22.75;4.25;;;10.20;98.10;;;;;;5030815;28;20492;-68
2022/01/03 06:32:34;;;;;;;16.15;3.15;;;10.20;98.10;;;;;;5030724;28;20463;-68
2022/01/03 06:35:03;;;;;;;32.63;4.78;;;10.30;98.10;;;;;;5039967;28;20108;-68
2022/01/03 06:37:30;;;;;;;19.85;3.53;;;10.30;98.10;;;;;;5033773;28;20535;-68
2022/01/03 06:40:06;;;;;;;16.77;3.42;;;10.30;98.10;;;;;;5031239;28;20025;-68
2022/01/03 06:42:32;;;;;;;25.50;4.50;;;10.30;98.00;;;;;;5031319;28;20025;-68
2022/01/03 06:44:59;;;;;;;17.23;3.97;;;10.40;97.90;;;;;;5042404;28;20030;-68
2022/01/03 06:47:25;;;;;;;17.88;4.03;;;10.30;97.90;;;;;;5032302;28;20025;-68
2022/01/03 06:49:51;;;;;;;23.52;5.18;;;10.30;97.80;;;;;;5052171;28;20085;-68
2022/01/03 06:52:18;;;;;;;12.02;2.88;;;10.40;97.70;;;;;;5049934;28;20124;-68
2022/01/03 06:54:44;;;;;;;15.45;4.63;;;10.30;97.70;;;;;;5050713;28;20021;-68
2022/01/03 06:57:10;;;;;;;23.17;4.53;;;10.40;97.80;;;;;;5052522;28;20097;-68
2022/01/03 06:59:38;;;;;;;15.35;3.75;;;10.40;97.70;;;;;;5044438;28;20032;-69
2022/01/03 07:02:07;;;;;;;26.65;4.47;;;10.40;97.70;;;;;;5034676;28;20026;-68
2022/01/03 07:04:33;;;;;;;21.83;3.97;;;10.40;97.70;;;;;;5046609;28;20047;-68
2022/01/03 07:06:59;;;;;;;14.10;2.60;;;10.40;97.70;;;;;;5050849;28;20476;-68
2022/01/03 07:09:25;;;;;;;22.42;3.47;;;10.40;97.80;;;;;;5035819;28;20034;-68
2022/01/03 07:11:51;;;;;;;20.63;3.47;;;10.40;97.70;;;;;;5035077;28;20041;-68
2022/01/03 07:19:53;;;;;;;15.38;3.38;;;10.50;97.60;;;;;;5034215;28;20051;-68
2022/01/03 07:22:19;;;;;;;23.33;4.25;;;10.40;97.60;;;;;;5038310;28;20029;-68
2022/01/03 07:24:45;;;;;;;25.92;4.47;;;10.40;97.60;;;;;;5034939;28;20082;-68
2022/01/03 07:27:13;;;;;;;10.02;2.55;;;10.40;97.60;;;;;;5036759;28;20061;-68
2022/01/03 07:29:40;;;;;;;19.65;4.07;;;10.30;97.70;;;;;;5034697;28;20037;-68
2022/01/03 07:32:07;;;;;;;16.75;3.20;;;10.40;97.70;;;;;;5034554;28;20041;-68
2022/01/03 07:34:32;;;;;;;18.55;3.67;;;10.40;97.80;;;;;;5034020;28;20575;-68
2022/01/03 07:36:58;;;;;;;19.27;3.70;;;10.40;97.80;;;;;;5037410;28;20029;-68
2022/01/03 07:39:24;;;;;;;29.90;5.97;;;10.30;97.80;;;;;;5034777;28;20046;-68
2022/01/03 07:41:52;;;;;;;26.40;3.30;;;10.30;97.80;;;;;;5034271;28;20044;-68
2022/01/03 07:44:18;;;;;;;26.08;4.70;;;10.30;97.90;;;;;;5040675;28;20025;-68
2022/01/03 07:46:44;;;;;;;15.90;3.13;;;10.30;97.90;;;;;;5038459;28;20037;-68
2022/01/03 07:49:09;;;;;;;11.63;3.30;;;10.30;97.90;;;;;;5044173;28;20056;-68
2022/01/03 07:51:35;;;;;;;20.10;3.20;;;10.40;97.90;;;;;;5038817;28;20037;-68
2022/01/03 07:54:01;;;;;;;16.83;3.70;;;10.40;97.90;;;;;;5040320;28;20112;-68
2022/01/03 07:56:26;;;;;;;19.60;3.08;;;10.40;97.80;;;;;;5034404;28;20030;-68
2022/01/03 07:58:55;;;;;;;24.13;3.70;;;10.40;97.80;;;;;;5034904;28;20420;-68
2022/01/03 08:01:22;;;;;;;17.65;3.88;;;10.40;97.80;;;;;;5038784;28;20033;-68
2022/01/03 08:03:47;;;;;;;20.98;3.25;;;10.40;97.70;;;;;;5051446;28;20106;-69
2022/01/03 08:06:13;;;;;;;18.80;3.20;;;10.50;97.70;;;;;;5053825;28;20452;-68
2022/01/03 08:08:39;;;;;;;19.75;3.83;;;10.40;97.70;;;;;;5034237;28;20044;-68
2022/01/03 08:11:05;;;;;;;17.75;3.03;;;10.50;97.70;;;;;;5048254;28;20029;-68
2022/01/03 08:13:31;;;;;;;18.58;3.85;;;10.50;97.60;;;;;;5047538;28;20033;-68
2022/01/03 08:15:59;;;;;;;11.80;2.10;;;10.50;97.60;;;;;;5048464;28;20025;-68
2022/01/03 08:18:25;;;;;;;16.33;3.83;;;10.50;97.60;;;;;;5050852;28;20355;-68
2022/01/03 08:20:53;;;;;;;30.27;4.20;;;10.50;97.70;;;;;;5037273;28;20032;-68
2022/01/03 08:23:19;;;;;;;18.63;3.85;;;10.50;97.70;;;;;;5033703;28;20067;-68
2022/01/03 08:25:44;;;;;;;15.85;3.40;;;10.50;97.70;;;;;;5039025;28;20112;-69
2022/01/03 08:28:12;;;;;;;23.40;4.80;;;10.50;97.80;;;;;;5049192;28;20036;-67
2022/01/03 08:30:37;;;;;;;23.25;4.22;;;10.50;97.80;;;;;;5051805;28;20059;-67
2022/01/03 08:33:06;;;;;;;23.33;4.22;;;10.50;97.80;;;;;;5052465;28;20037;-67
2022/01/03 08:35:32;;;;;;;21.20;2.92;;;10.50;97.90;;;;;;5052282;28;20028;-67
2022/01/03 08:37:58;;;;;;;21.08;3.97;;;10.40;97.90;;;;;;5048954;28;20068;-68
2022/01/03 08:40:25;;;;;;;20.55;3.88;;;10.40;98.00;;;;;;5049650;28;20103;-68
2022/01/03 08:42:53;;;;;;;17.17;4.78;;;10.40;98.00;;;;;;5047949;28;20044;-68
2022/01/03 08:45:19;;;;;;;21.23;4.20;;;10.40;98.10;;;;;;5043853;28;20033;-68
2022/01/03 08:47:47;;;;;;;17.77;4.07;;;10.40;98.00;;;;;;5051099;28;20036;-68
2022/01/03 08:50:15;;;;;;;19.63;3.13;;;10.40;98.10;;;;;;5052315;28;20037;-69
2022/01/03 08:52:41;;;;;;;26.55;4.38;;;10.40;98.10;;;;;;5048311;28;20041;-69
2022/01/03 08:55:07;;;;;;;16.55;3.25;;;10.40;98.10;;;;;;5052097;28;20017;-68
2022/01/03 08:57:33;;;;;;;19.38;3.97;;;10.40;98.20;;;;;;5049091;28;20055;-67
2022/01/03 08:59:59;;;;;;;29.33;4.25;;;10.40;98.10;;;;;;5048451;28;20033;-67
2022/01/03 09:02:24;;;;;;;19.35;3.80;;;10.50;98.10;;;;;;5043988;28;20029;-67
2022/01/03 09:04:50;;;;;;;26.27;4.18;;;10.50;98.10;;;;;;5032567;28;20033;-67
2022/01/03 09:07:16;;;;;;;16.08;3.00;;;10.40;98.00;;;;;;5035256;28;20033;-68
2022/01/03 09:09:41;;;;;;;22.42;4.57;;;10.50;98.10;;;;;;5035376;28;20039;-70
2022/01/03 09:12:08;;;;;;;15.68;3.80;;;10.50;98.20;;;;;;5033870;28;20053;-68
2022/01/03 09:14:35;;;;;;;22.90;4.80;;;10.40;98.20;;;;;;5036841;28;20068;-68
2022/01/03 09:17:01;;;;;;;21.80;4.28;;;10.40;98.30;;;;;;5033650;28;20072;-68
2022/01/03 09:19:27;;;;;;;20.45;3.92;;;10.40;98.30;;;;;;5037277;28;20033;-68
2022/01/03 09:22:06;;;;;;;23.60;4.28;;;10.40;98.40;;;;;;5042373;28;20033;-68
2022/01/03 09:24:44;;;;;;;21.52;4.40;;;10.40;98.60;;;;;;5043010;28;20037;-68
2022/01/03 09:29:57;;;;;;;22.17;4.63;;;10.40;98.30;;;;;;5050055;28;20082;-67
2022/01/03 09:32:23;;;;;;;11.45;3.25;;;10.40;98.30;;;;;;5046430;28;20107;-68
2022/01/03 09:34:49;;;;;;;25.50;4.22;;;10.40;98.30;;;;;;5043167;28;20091;-67
2022/01/03 09:37:19;;;;;;;25.02;4.63;;;10.50;98.40;;;;;;5045824;28;20433;-67
2022/01/03 09:39:47;;;;;;;28.17;4.38;;;10.50;98.30;;;;;;5043552;28;20112;-68
2022/01/03 09:42:17;;;;;;;20.98;3.40;;;10.50;98.30;;;;;;5046420;28;20147;-69
2022/01/03 09:44:44;;;;;;;14.95;3.80;;;10.50;98.30;;;;;;5045123;28;20025;-69
2022/01/03 09:47:14;;;;;;;16.95;3.83;;;10.50;98.30;;;;;;5044297;28;20033;-67
2022/01/03 09:49:40;;;;;;;21.52;4.70;;;10.50;98.20;;;;;;5049341;28;20044;-68
2022/01/03 09:52:07;;;;;;;31.17;4.93;;;10.60;98.20;;;;;;5046555;28;20037;-68
2022/01/03 09:54:33;;;;;;;21.67;4.05;;;10.60;98.20;;;;;;5044408;28;20071;-70
2022/01/03 09:57:01;;;;;;;23.70;4.65;;;10.60;98.20;;;;;;5041985;28;20076;-69
2022/01/03 09:59:28;;;;;;;16.73;4.68;;;10.60;98.20;;;;;;5047994;28;20025;-68
2022/01/03 10:01:55;;;;;;;21.95;3.22;;;10.60;98.20;;;;;;5046008;28;20029;-68
2022/01/03 10:04:22;;;;;;;16.95;3.72;;;10.60;98.20;;;;;;5048520;28;20037;-68
2022/01/03 10:06:48;;;;;;;21.90;2.80;;;10.70;98.20;;;;;;5045105;28;20111;-68
2022/01/03 10:09:13;;;;;;;22.95;4.07;;;10.70;98.10;;;;;;5047140;28;20136;-72
2022/01/03 10:11:39;;;;;;;31.00;4.13;;;10.70;98.10;;;;;;5049330;28;20099;-68
2022/01/03 10:14:05;;;;;;;19.42;4.18;;;10.80;98.10;;;;;;5045963;28;20025;-68
2022/01/03 10:16:33;;;;;;;29.60;5.40;;;10.70;98.10;;;;;;5044773;28;20123;-68
2022/01/03 10:18:59;;;;;;;19.10;3.70;;;10.80;98.00;;;;;;5048518;28;20116;-68
2022/01/03 10:21:46;;;;;;;23.48;4.78;;;10.70;98.10;;;;;;5042445;28;20032;-68
2022/01/03 10:24:13;;;;;;;29.67;4.47;;;10.80;98.10;;;;;;5048402;28;20033;-69
2022/01/03 10:26:39;;;;;;;17.23;3.35;;;10.80;98.10;;;;;;5037919;28;20041;-69
2022/01/03 10:29:26;;;;;;;21.40;4.30;;;10.80;98.20;;;;;;5046921;28;20119;-68
2022/01/03 10:31:58;;;;;;;19.20;3.88;;;10.80;98.20;;;;;;5047311;28;20132;-68
2022/01/03 10:34:24;;;;;;;23.15;4.05;;;10.70;98.20;;;;;;5047481;28;20091;-70
2022/01/03 10:36:51;;;;;;;25.80;4.65;;;10.70;98.30;;;;;;5042021;28;20028;-70
2022/01/03 10:39:26;;;;;;;22.48;4.22;;;10.70;98.40;;;;;;5047902;28;20029;-70
2022/01/03 10:41:55;;;;;;;20.98;3.55;;;10.70;98.40;;;;;;5046867;28;20112;-70
2022/01/03 10:44:37;;;;;;;21.40;4.05;;;10.70;98.40;;;;;;5043505;28;20065;-68
2022/01/03 10:47:05;;;;;;;21.95;4.07;;;10.80;98.40;;;;;;5048158;28;20435;-68
2022/01/03 10:49:32;;;;;;;27.65;4.47;;;10.80;98.30;;;;;;5042037;28;20575;-68
2022/01/03 10:52:22;;;;;;;23.40;4.78;;;10.90;98.30;;;;;;5050016;28;20037;-68
2022/01/03 10:55:26;;;;;;;19.90;4.65;;;10.80;98.30;;;;;;5039439;28;20033;-68
2022/01/03 10:57:59;;;;;;;18.33;4.00;;;10.80;98.30;;;;;;5030888;28;20055;-68
2022/01/03 11:00:30;;;;;;;20.70;3.63;;;10.80;98.30;;;;;;5038674;28;20381;-68
2022/01/03 11:05:45;;;;;;;24.33;4.63;;;10.90;98.40;;;;;;5031543;28;20118;-68
2022/01/03 11:10:57;;;;;;;19.98;4.93;;;10.90;98.20;;;;;;5044572;28;20037;-68
2022/01/03 11:13:23;;;;;;;22.00;3.78;;;10.90;98.30;;;;;;5047401;28;20416;-68
2022/01/03 11:15:55;;;;;;;20.02;3.78;;;10.90;98.40;;;;;;5045732;28;20499;-68
2022/01/03 11:18:27;;;;;;;13.63;3.20;;;10.90;98.30;;;;;;5048884;28;20029;-68
2022/01/03 11:21:09;;;;;;;28.05;4.15;;;11.00;98.20;;;;;;5040679;28;20106;-68
2022/01/03 11:23:36;;;;;;;26.77;4.13;;;11.00;98.20;;;;;;5050271;28;20029;-68
2022/01/03 11:26:19;;;;;;;29.80;4.25;;;11.00;98.20;;;;;;5051056;28;20059;-68
2022/01/03 11:28:48;;;;;;;21.40;4.60;;;11.00;98.10;;;;;;5035010;28;20479;-68
2022/01/03 11:31:17;;;;;;;20.73;4.15;;;11.00;98.10;;;;;;5048822;28;20528;-68
2022/01/03 11:33:43;;;;;;;15.60;2.55;;;11.00;98.10;;;;;;5047301;28;20040;-69
2022/01/03 11:36:09;;;;;;;22.25;4.57;;;11.00;98.10;;;;;;5050399;28;20036;-68
2022/01/03 11:38:37;;;;;;;17.15;3.60;;;11.00;98.20;;;;;;5043774;28;20029;-69
2022/01/03 11:41:08;;;;;;;31.95;4.47;;;11.00;98.20;;;;;;5030135;28;20033;-68
2022/01/03 11:43:35;;;;;;;27.23;4.93;;;11.00;98.10;;;;;;5047299;28;20579;-79
2022/01/03 11:46:01;;;;;;;20.70;3.88;;;11.00;98.10;;;;;;5049394;28;20025;-68
2022/01/03 11:48:28;;;;;;;20.30;4.15;;;11.10;98.10;;;;;;5053378;28;20036;-68
2022/01/03 11:51:02;;;;;;;26.23;4.40;;;11.10;98.00;;;;;;5048533;28;20107;-69
2022/01/03 11:53:42;;;;;;;16.27;3.38;;;11.10;98.00;;;;;;5050219;28;20049;-69
2022/01/03 11:56:15;;;;;;;30.50;3.60;;;11.10;98.00;;;;;;5053375;28;20029;-69
2022/01/03 11:59:04;;;;;;;14.45;3.05;;;11.20;98.00;;;;;;5053380;28;20044;-69
2022/01/03 12:04:37;;;;;;;23.52;3.90;;;11.20;97.90;;;;;;5041987;28;20088;-69
2022/01/03 12:07:07;;;;;;;18.33;3.45;;;11.20;97.80;;;;;;5038340;28;20025;-69
2022/01/03 12:09:34;;;;;;;22.02;3.90;;;11.20;97.80;;;;;;5043713;28;20040;-69
2022/01/03 12:12:00;;;;;;;19.67;4.32;;;11.20;97.90;;;;;;5036951;28;20041;-68
2022/01/03 12:14:44;;;;;;;19.73;3.90;;;11.30;97.80;;;;;;5045172;28;20035;-68
2022/01/03 12:17:15;;;;;;;30.38;4.35;;;11.20;97.70;;;;;;5041143;28;20128;-68
2022/01/03 12:19:46;;;;;;;18.67;3.03;;;11.20;97.70;;;;;;5054424;28;20033;-69
2022/01/03 12:22:20;;;;;;;24.15;4.88;;;11.20;97.70;;;;;;5045242;28;20120;-68
2022/01/03 12:24:56;;;;;;;28.80;4.28;;;11.20;97.70;;;;;;5039883;28;20028;-69
2022/01/03 12:27:24;;;;;;;22.00;4.25;;;11.20;97.70;;;;;;5054291;28;20040;-69
2022/01/03 12:29:55;;;;;;;21.27;3.55;;;11.20;97.80;;;;;;5047863;28;20481;-69
2022/01/03 12:32:31;;;;;;;20.30;4.28;;;11.30;97.70;;;;;;5045263;28;20041;-69
2022/01/03 12:35:19;;;;;;;12.05;3.05;;;11.30;97.70;;;;;;5052045;28;20029;-71
2022/01/03 12:37:52;;;;;;;19.27;3.85;;;11.30;97.70;;;;;;5051504;28;20032;-70
2022/01/03 12:40:24;;;;;;;16.00;4.00;;;11.30;97.60;;;;;;5050340;28;20117;-69
2022/01/03 12:42:55;;;;;;;18.80;3.95;;;11.30;97.60;;;;;;5050133;28;20099;-69
2022/01/03 12:45:30;;;;;;;15.95;3.78;;;11.40;97.60;;;;;;5053176;28;20117;-70
2022/01/03 12:48:15;;;;;;;21.35;3.92;;;11.40;97.50;;;;;;5051352;28;20035;-69
2022/01/03 12:50:52;;;;;;;18.10;3.85;;;11.50;97.50;;;;;;5048332;28;20056;-70
2022/01/03 12:53:27;;;;;;;18.30;3.58;;;11.50;97.30;;;;;;5050754;28;20045;-69
2022/01/03 12:56:02;;;;;;;15.98;3.80;;;11.50;97.30;;;;;;5044272;28;20025;-69
2022/01/03 12:58:27;;;;;;;26.65;4.90;;;11.50;97.30;;;;;;5036020;28;20516;-69
2022/01/03 13:01:19;;;;;;;17.27;4.22;;;11.50;97.20;;;;;;5049583;28;20025;-69
2022/01/03 13:03:53;;;;;;;24.13;4.43;;;11.40;97.20;;;;;;5052743;28;20079;-69
2022/01/03 13:06:20;;;;;;;16.30;3.08;;;11.40;97.20;;;;;;5047006;28;20036;-70